• Join FlightAware (Why Join?)
  • Login
  • US Flag 
06:23AM EDT


 

Airport Tracker/Info


-or-


 

Live Flight TrackerFlight Track Log ✈ FSR411 ✈ 25-Sep-2013 ✈ KDET - KBWG

Flight Track Log - Related Links

Times and Time Zones

All times are in EDT time to prevent confusion due to time zone crossing. See the FSR411 flight status page for this flight to view local times or setup timezone preferences in your user account.

Time Position Orientation Groundspeed Altitude Reporting Facility
EDT Latitude Longitude Course Direction KTS MPH feet Rate Location/Type
08:02AM 42.4408 -83.0356 331° Northwest 186 214 1,900  Level Cleveland Center
08:03AM 42.4600 -82.9914 60° Northeast 226 260 2,600 1,140 Climbing Cleveland Center
08:03AM 42.4419 -82.9650 133° Southeast 227 261 3,300 1,500 Climbing Cleveland Center
08:04AM 42.4183 -82.9258 129° Southeast 230 265 4,200 1,380 Climbing Cleveland Center
08:04AM 42.4072 -82.8981 118° Southeast 250 288 4,600 720 Climbing Cleveland Center
08:05AM 42.3639 -82.8706 155° Southeast 261 300 5,000 840 Climbing Cleveland Center
08:05AM 42.3403 -82.8694 178° South 271 312 5,500 2,580 Climbing Cleveland Center
08:06AM 42.2928 -82.8878 196° South 269 310 7,700 3,240 Climbing Cleveland Center
08:07AM 42.2186 -82.9719 220° Southwest 288 331 11,600 3,120 Climbing Cleveland Center
08:08AM 42.1428 -83.0581 220° Southwest 350 403 14,200 1,740 Climbing Cleveland Center
08:09AM 42.0592 -83.1506 219° Southwest 382 440 15,200 1,980 Climbing Cleveland Center
08:10AM 41.9728 -83.2464 220° Southwest 398 458 18,400 3,180 Climbing Cleveland Center
08:11AM 41.8803 -83.3372 216° Southwest 405 466 21,900 3,240 Climbing Cleveland Center
08:12AM 41.7775 -83.4081 207° Southwest 412 474 25,100 2,940 Climbing Cleveland Center
08:13AM 41.6797 -83.4794 209° Southwest 403 464 28,000 2,460 Climbing Cleveland Center
08:14AM 41.5833 -83.5500 209° Southwest 396 456 30,300 2,100 Climbing Cleveland Center
08:15AM 41.4644 -83.6361 208° Southwest 404 465 32,400 1,740 Climbing Cleveland Center
08:16AM 41.3636 -83.7086 208° Southwest 410 472 34,000 1,200 Climbing Cleveland Center
08:17AM 41.2611 -83.7828 209° Southwest 417 480 35,000 600 Climbing Cleveland Center
08:18AM 41.1544 -83.8594 208° Southwest 433 498 35,300 480 Climbing Cleveland Center
08:19AM 41.0275 -83.9500 208° Southwest 447 514 36,000 300 Climbing Cleveland Center
08:20AM 40.9169 -84.0314 209° Southwest 451 519 36,000  Level Cleveland Center
08:21AM 40.8075 -84.1075 208° Southwest 447 514 36,000  Level Cleveland Center
08:22AM 40.7064 -84.1758 207° Southwest 447 514 36,000  Level Cleveland Center
08:23AM 40.5728 -84.2597 206° Southwest 446 513 36,000  Level Cleveland Center
08:24AM 40.4617 -84.3300 206° Southwest 444 511 36,000  Level Cleveland Center
08:25AM 40.3508 -84.4003 206° Southwest 446 513 36,000  Level Cleveland Center
08:27AM 40.2408 -84.4681 205° Southwest 442 509 36,000  Level Cleveland Center
08:28AM 40.1308 -84.5381 206° Southwest 441 507 36,000  Level Cleveland Center
08:29AM 39.9969 -84.6217 206° Southwest 446 513 36,000  Level Cleveland Center
08:30AM 39.8642 -84.7025 205° Southwest 443 510 36,000  Level Indianapolis Center
08:31AM 39.7308 -84.7844 205° Southwest 443 510 36,000  Level Indianapolis Center
08:32AM 39.6214 -84.8536 206° Southwest 442 509 36,000  Level Indianapolis Center
08:33AM 39.5003 -84.9272 205° Southwest 450 518 36,000  Level Indianapolis Center
08:34AM 39.3883 -84.9961 205° Southwest 448 516 36,000  Level Indianapolis Center
08:35AM 39.2747 -85.0653 205° Southwest 450 518 36,000  Level Indianapolis Center
08:36AM 39.1597 -85.1339 205° Southwest 454 522 36,000 -300 Level Indianapolis Center
08:37AM 39.0456 -85.2033 205° Southwest 454 522 35,400 -600 Descending Indianapolis Center
08:38AM 38.9311 -85.2722 205° Southwest 453 521 34,800 -840 Descending Indianapolis Center
08:39AM 38.8167 -85.3408 205° Southwest 453 521 33,700 -1,260 Descending Indianapolis Center
08:40AM 38.6833 -85.4214 205° Southwest 445 512 32,200 -1,260 Descending Indianapolis Center
08:41AM 38.5681 -85.4897 205° Southwest 452 520 31,200 -1,140 Descending Indianapolis Center
08:42AM 38.4497 -85.5589 205° Southwest 460 529 29,900 -1,500 Descending Indianapolis Center
08:43AM 38.3358 -85.6269 205° Southwest 454 522 28,100 -1,980 Descending Indianapolis Center
08:44AM 38.2189 -85.6956 205° Southwest 457 526 25,900 -1,920 Descending Indianapolis Center
08:45AM 38.1003 -85.7647 205° Southwest 465 535 24,200 -1,980 Descending Indianapolis Center
08:46AM 37.9892 -85.8289 204° Southwest 440 506 21,900 -2,460 Descending Indianapolis Center
08:47AM 37.8878 -85.8889 205° Southwest 403 464 19,200 -2,760 Descending Indianapolis Center
08:48AM 37.7944 -85.9433 205° Southwest 371 427 16,200 -2,880 Descending Indianapolis Center
08:49AM 37.6881 -86.0042 204° Southwest 348 400 13,300 -2,580 Descending Indianapolis Center
08:51AM 37.6014 -86.0547 205° Southwest 341 392 11,000 -1,920 Descending Indianapolis Center
08:52AM 37.5267 -86.0983 205° Southwest 314 361 9,400 -1,800 Descending Indianapolis Center
08:53AM 37.4539 -86.1406 205° Southwest 289 333 7,400 -1,560 Descending Indianapolis Center
08:54AM 37.3819 -86.1819 205° Southwest 282 325 6,200 -720 Descending Indianapolis Center
08:55AM 37.3164 -86.2189 204° Southwest 262 302 6,000 -120 Descending Indianapolis Center
08:56AM 37.2511 -86.2481 200° South 209 241 6,000 -480 Level Indianapolis Center
08:57AM 37.1961 -86.2706 198° South 204 235 5,100 -540 Descending Indianapolis Center
08:58AM 37.1392 -86.2933 198° South 210 242 5,000 -60 Descending Indianapolis Center
08:59AM 37.1189 -86.2483 119° Southeast 205 236 5,000  Level Indianapolis Center
09:00AM 37.1661 -86.2106 33° Northeast 201 231 5,000  Level Indianapolis Center
09:01AM 37.2161 -86.2161 355° North 215 247 5,000  Level Indianapolis Center
09:02AM 37.1836 -86.2656 230° Southwest 201 231 5,000  Level Indianapolis Center
09:03AM 37.1317 -86.2994 207° Southwest 207 238 5,000 -900 Level Indianapolis Center
09:04AM 37.0742 -86.3408 210° Southwest 202 232 3,200 -1,380 Descending Indianapolis Center
09:05AM 37.0339 -86.3700 210° Southwest 177 204 2,200 -1,020 Descending Indianapolis Center